Time;durP1;ratioP1;P1;durP2;ratioP2;P2;SDS_P1;SDS_P2;PMS_P1;PMS_P2;Temp;Humidity;BMP_temperature;BMP_pressure;BME280_temperature;BME280_humidity;BME280_pressure;Samples;Min_cycle;Max_cycle;Signal;HPM_P1;HPM_P2
2022/07/06 00:11:35;;;;;;;18.70;11.90;;;;;;;16.68;80.15;98765.95;433588;1269;111070;-43
2022/07/06 00:21:43;;;;;;;20.00;12.50;;;;;;;16.67;80.24;98763.58;433145;1268;109032;-40
2022/07/06 00:31:50;;;;;;;15.50;12.50;;;;;;;16.61;80.43;98764.31;433552;1268;97529;-41
2022/07/06 00:41:56;;;;;;;17.00;12.20;;;;;;;16.57;80.52;98758.96;433375;1270;108815;-41
2022/07/06 00:52:02;;;;;;;22.30;11.50;;;;;;;16.56;80.54;98757.73;433345;1269;98064;-41
2022/07/06 01:02:10;;;;;;;12.70;11.40;;;;;;;16.48;80.49;98754.83;433477;1268;110003;-42
2022/07/06 01:12:18;;;;;;;18.40;11.70;;;;;;;16.36;80.63;98755.30;434366;1254;107856;-40
2022/07/06 01:22:24;;;;;;;17.60;11.40;;;;;;;16.29;80.50;98746.98;433609;1268;98377;-41
2022/07/06 01:32:31;;;;;;;12.70;11.10;;;;;;;16.19;80.61;98738.40;433424;1269;108838;-43
2022/07/06 01:42:39;;;;;;;13.00;11.70;;;;;;;16.11;80.72;98738.69;433562;1270;97931;-41
2022/07/06 01:52:45;;;;;;;15.20;11.10;;;;;;;15.95;80.54;98748.02;433594;1270;110895;-41
2022/07/06 02:02:53;;;;;;;16.00;12.20;;;;;;;15.63;80.42;98738.02;433464;1268;108842;-43
2022/07/06 02:13:00;;;;;;;18.90;11.60;;;;;;;15.62;80.89;98741.92;433497;1271;98623;-42
2022/07/06 02:23:07;;;;;;;11.90;10.80;;;;;;;15.51;80.60;98738.95;433449;1268;108773;-43
2022/07/06 02:33:14;;;;;;;14.20;10.40;;;;;;;15.57;80.70;98734.09;433536;1268;97892;-42
2022/07/06 02:43:22;;;;;;;13.90;11.00;;;;;;;15.49;80.49;98732.13;433704;1268;111800;-44
2022/07/06 02:53:29;;;;;;;15.40;12.50;;;;;;;15.33;80.25;98734.96;433567;1268;108931;-42
2022/07/06 03:03:37;;;;;;;12.50;11.30;;;;;;;14.90;79.88;98739.20;433459;1268;97910;-45
2022/07/06 03:13:44;;;;;;;18.30;14.40;;;;;;;14.74;79.98;98739.29;433549;1269;108717;-42
2022/07/06 03:23:51;;;;;;;18.50;13.30;;;;;;;14.95;80.35;98735.29;433458;1269;97923;-42
2022/07/06 03:33:58;;;;;;;18.30;13.10;;;;;;;15.59;79.83;98720.05;433499;1271;111189;-41
2022/07/06 03:44:03;;;;;;;19.20;13.60;;;;;;;17.43;78.70;98715.54;433490;1270;108719;-43
2022/07/06 03:54:09;;;;;;;18.00;13.00;;;;;;;19.29;77.05;98708.42;433460;1270;97509;-42
2022/07/06 04:04:16;;;;;;;13.20;11.60;;;;;;;20.93;75.46;98706.42;433445;1268;108699;-43
2022/07/06 04:14:23;;;;;;;11.10;10.00;;;;;;;22.34;73.64;98720.58;433580;1271;97915;-43
2022/07/06 04:24:28;;;;;;;;;;;;;;;23.43;72.40;98727.02;433305;1269;110917;-41
2022/07/06 04:34:35;;;;;;;7.80;6.70;;;;;;;24.71;71.01;98720.48;433328;1270;109595;-44
2022/07/06 04:54:49;;;;;;;7.20;6.50;;;;;;;26.27;67.51;98749.39;433358;1270;108787;-43
2022/07/06 05:04:56;;;;;;;9.40;6.80;;;;;;;26.57;66.54;98745.63;432605;1269;97985;-44
2022/07/06 05:15:04;;;;;;;7.20;6.60;;;;;;;26.49;65.12;98746.24;433364;1270;111179;-42
2022/07/06 05:25:12;;;;;;;9.70;6.30;;;;;;;26.24;64.34;98747.50;432816;1270;108980;-45
2022/07/06 05:35:20;;;;;;;5.90;5.40;;;;;;;26.44;64.42;98760.58;433734;1271;98412;-44
2022/07/06 05:45:47;;;;;;;5.60;5.10;;;;;;;26.22;63.23;98766.78;433504;1268;110156;-46
2022/07/06 05:55:54;;;;;;;6.40;5.00;;;;;;;25.93;61.92;98775.84;433528;1270;108760;-43
2022/07/06 06:06:02;;;;;;;9.00;4.20;;;;;;;25.75;61.20;98763.66;433265;1271;98583;-42
2022/07/06 06:16:09;;;;;;;9.10;3.60;;;;;;;26.02;60.84;98774.51;433235;1270;111130;-43
2022/07/06 06:26:17;;;;;;;4.60;3.70;;;;;;;26.54;60.08;98784.46;433124;1268;108807;-44
2022/07/06 06:36:24;;;;;;;3.80;3.10;;;;;;;26.83;58.63;98807.42;433513;1268;96946;-42
2022/07/06 06:46:31;;;;;;;7.00;4.30;;;;;;;25.67;56.78;98805.89;433440;1268;110826;-45
2022/07/06 06:56:39;;;;;;;5.50;5.00;;;;;;;23.65;57.60;98810.56;433412;1268;107877;-42
2022/07/06 07:06:46;;;;;;;7.70;6.80;;;;;;;22.54;59.12;98817.95;433478;1268;97924;-42
2022/07/06 07:16:53;;;;;;;9.40;7.40;;;;;;;22.26;60.34;98827.77;432889;1270;111248;-41
2022/07/06 07:27:00;;;;;;;12.70;10.50;;;;;;;21.78;60.78;98832.18;433549;1268;108799;-43
2022/07/06 07:37:07;;;;;;;14.20;12.70;;;;;;;21.61;61.27;98827.42;433503;1268;97927;-41
2022/07/06 07:47:14;;;;;;;18.00;15.20;;;;;;;20.86;61.58;98829.88;433368;1268;111410;-42
2022/07/06 07:57:22;;;;;;;19.70;17.70;;;;;;;20.27;62.26;98851.34;433425;1268;108870;-45
2022/07/06 08:07:29;;;;;;;13.00;11.50;;;;;;;19.17;63.57;98872.83;433399;1268;98156;-41
2022/07/06 08:17:35;;;;;;;13.40;10.30;;;;;;;18.61;64.89;98895.45;433299;1268;110441;-41
2022/07/06 08:27:42;;;;;;;9.90;9.00;;;;;;;19.56;65.64;98881.41;433262;1268;106327;-42
2022/07/06 08:37:49;;;;;;;10.80;7.30;;;;;;;21.86;64.77;98868.73;433381;1268;97907;-42
2022/07/06 09:08:12;;;;;;;7.60;6.80;;;;;;;22.28;59.76;98866.34;433367;1268;100199;-44
2022/07/06 09:18:22;;;;;;;9.10;8.20;;;;;;;21.49;60.38;98863.31;433691;1269;111012;-42
2022/07/06 09:28:33;;;;;;;9.00;8.20;;;;;;;21.41;61.09;98861.58;433483;1268;107398;-42
2022/07/06 09:38:39;;;;;;;105.20;14.00;;;;;;;21.35;61.25;98856.14;432864;1269;97958;-40
2022/07/06 09:48:47;;;;;;;7.70;7.00;;;;;;;21.71;61.61;98855.46;433539;1268;108837;-44
2022/07/06 09:58:55;;;;;;;9.10;7.20;;;;;;;22.17;61.59;98846.04;433757;1268;96857;-42
2022/07/06 10:09:12;;;;;;;10.10;8.30;;;;;;;22.62;60.90;98836.64;433673;1270;110947;-41
2022/07/06 10:19:21;;;;;;;16.30;10.30;;;;;;;22.71;60.13;98837.14;433544;1268;108785;-42
2022/07/06 10:29:29;;;;;;;13.00;11.80;;;;;;;22.71;60.16;98832.19;433469;1268;97535;-41
2022/07/06 10:50:04;;;;;;;9.20;8.20;;;;;;;23.80;57.57;98828.77;433574;1268;108926;-45
2022/07/06 11:00:19;;;;;;;8.70;6.50;;;;;;;23.53;57.19;98834.78;433480;1268;98908;-42
2022/07/06 11:10:27;;;;;;;5.90;4.90;;;;;;;23.96;55.33;98840.07;433718;1267;110786;-42
2022/07/06 11:20:34;;;;;;;5.70;3.90;;;;;;;23.36;54.30;98858.39;433797;1268;107715;-41
2022/07/06 11:30:47;;;;;;;10.00;6.70;;;;;;;23.55;54.37;98864.52;433604;1268;97849;-42
2022/07/06 11:40:56;;;;;;;8.60;6.50;;;;;;;23.11;54.06;98873.33;433707;1268;110160;-42
2022/07/06 11:51:00;;;;;;;9.30;7.20;;;;;;;22.97;54.95;98875.88;433619;1268;107689;-44
2022/07/06 12:01:04;;;;;;;8.60;6.50;;;;;;;22.96;55.18;98883.84;433459;1268;97916;-41
2022/07/06 12:21:24;;;;;;;4.80;3.10;;;;;;;22.59;55.05;98888.29;433592;1268;108807;-42
2022/07/06 12:31:33;;;;;;;2.40;2.30;;;;;;;23.01;53.61;98882.21;433588;1268;97906;-43
2022/07/06 12:41:44;;;;;;;5.30;4.80;;;;;;;22.92;53.08;98876.92;433772;1268;111244;-42
2022/07/06 12:51:57;;;;;;;4.80;3.30;;;;;;;22.34;53.20;98872.93;433576;1268;108964;-43
2022/07/06 13:02:05;;;;;;;4.50;3.30;;;;;;;22.13;54.49;98870.04;433468;1268;98044;-43
2022/07/06 13:12:13;;;;;;;5.40;2.90;;;;;;;22.26;54.46;98868.82;433629;1268;111027;-45
2022/07/06 13:22:20;;;;;;;3.70;2.80;;;;;;;22.11;52.95;98876.20;433641;1268;109027;-42
2022/07/06 13:32:27;;;;;;;3.40;3.10;;;;;;;21.81;52.91;98880.36;433679;1268;97172;-42
2022/07/06 13:42:33;;;;;;;15.70;3.40;;;;;;;21.48;53.38;98915.30;433536;1269;108827;-43
2022/07/06 13:52:39;;;;;;;7.60;3.10;;;;;;;19.87;55.53;98954.36;433821;1268;97586;-42
2022/07/06 14:02:46;;;;;;;3.80;1.70;;;;;;;19.25;57.76;98946.77;433538;1268;111541;-43
2022/07/06 14:12:54;;;;;;;12.60;9.00;;;;;;;19.50;59.02;98939.09;433445;1268;109212;-42
2022/07/06 14:23:02;;;;;;;3.70;1.70;;;;;;;19.77;59.16;98944.48;433603;1268;97897;-44
2022/07/06 14:33:10;;;;;;;2.20;1.60;;;;;;;20.03;58.73;98933.44;432527;1270;109245;-42
2022/07/06 14:53:29;;;;;;;2.70;1.40;;;;;;;19.92;55.94;98928.52;433709;1268;97942;-42
2022/07/06 15:03:35;;;;;;;;;;;;;;;19.91;55.66;98914.40;433565;1268;111119;-44
2022/07/06 15:13:42;;;;;;;4.40;1.70;;;;;;;19.74;55.51;98906.77;433538;1268;108689;-43
2022/07/06 15:23:50;;;;;;;3.60;2.00;;;;;;;19.48;55.51;98893.68;433690;1268;97893;-43
2022/07/06 15:33:56;;;;;;;10.00;2.60;;;;;;;19.39;55.75;98889.77;433664;1268;110463;-41
2022/07/06 15:44:02;;;;;;;3.30;2.80;;;;;;;19.51;56.17;98885.98;433788;1268;108618;-44
2022/07/06 16:04:15;;;;;;;5.40;1.80;;;;;;;20.10;54.53;98879.20;433618;1269;110965;-46
2022/07/06 16:14:22;;;;;;;4.10;1.30;;;;;;;20.55;53.88;98880.35;433533;1269;108863;-43
2022/07/06 16:24:30;;;;;;;3.80;1.90;;;;;;;20.75;52.97;98875.77;433688;1268;98588;-41
2022/07/06 16:34:37;;;;;;;1.00;0.80;;;;;;;20.59;51.73;98873.25;432954;1270;108815;-42
2022/07/06 16:44:44;;;;;;;10.60;1.50;;;;;;;20.50;51.54;98878.21;433661;1268;96683;-48
2022/07/06 16:54:51;;;;;;;3.60;1.10;;;;;;;20.33;51.10;98877.86;433643;1269;111215;-43
2022/07/06 17:04:59;;;;;;;2.00;1.30;;;;;;;20.19;50.88;98874.42;433799;1269;108714;-48
2022/07/06 17:15:06;;;;;;;2.30;1.60;;;;;;;20.06;50.55;98866.52;433226;1270;97907;-43
2022/07/06 17:25:13;;;;;;;5.10;1.60;;;;;;;19.84;50.67;98864.83;433713;1268;111030;-47
2022/07/06 17:35:20;;;;;;;4.30;1.60;;;;;;;19.65;51.08;98856.48;433428;1269;107702;-43
2022/07/06 17:45:27;;;;;;;2.50;1.90;;;;;;;19.56;51.33;98859.23;433686;1270;97989;-45
2022/07/06 17:55:36;;;;;;;4.90;2.40;;;;;;;19.39;51.58;98864.35;433468;1270;110924;-44
2022/07/06 18:05:43;;;;;;;2.70;2.40;;;;;;;19.09;52.70;98873.23;433484;1268;108798;-44
2022/07/06 18:15:53;;;;;;;4.10;1.90;;;;;;;18.68;53.25;98880.70;433297;1270;97923;-42
2022/07/06 18:26:02;;;;;;;2.80;2.10;;;;;;;18.41;54.14;98884.40;433126;1270;111374;-43
2022/07/06 18:36:09;;;;;;;;;;;;;;;18.12;54.90;98880.70;433453;1268;108311;-46
2022/07/06 18:46:17;;;;;;;7.00;2.90;;;;;;;17.78;55.54;98889.02;433747;1268;97899;-44
2022/07/06 18:56:24;;;;;;;21.70;4.20;;;;;;;17.43;55.73;98883.67;432987;1269;111044;-44
2022/07/06 19:16:38;;;;;;;4.10;2.70;;;;;;;16.77;57.41;98901.54;433369;1269;98470;-43
2022/07/06 19:26:46;;;;;;;5.40;4.10;;;;;;;16.43;58.06;98909.09;433665;1270;111309;-42
2022/07/06 19:36:53;;;;;;;5.90;4.00;;;;;;;16.11;58.74;98914.48;433484;1271;109261;-45
2022/07/06 19:46:59;;;;;;;6.80;4.70;;;;;;;15.78;59.39;98910.55;433554;1270;97929;-44
2022/07/06 19:57:05;;;;;;;7.50;4.40;;;;;;;15.55;59.78;98920.80;433497;1270;111244;-43
2022/07/06 20:07:12;;;;;;;5.60;3.90;;;;;;;15.34;60.36;98921.19;433386;1269;108883;-44
2022/07/06 20:17:20;;;;;;;9.20;5.10;;;;;;;15.25;60.85;98923.30;433608;1270;98032;-42
2022/07/06 20:27:27;;;;;;;10.00;6.80;;;;;;;15.27;61.50;98921.41;433476;1270;107032;-41
2022/07/06 20:37:36;;;;;;;10.50;7.00;;;;;;;15.39;61.91;98922.48;433412;1269;97946;-42
2022/07/06 20:47:43;;;;;;;11.00;7.20;;;;;;;15.60;62.22;98925.48;433601;1268;111027;-42
2022/07/06 20:57:50;;;;;;;12.50;8.10;;;;;;;15.77;62.65;98926.36;433158;1268;633696;-43
2022/07/06 21:07:57;;;;;;;13.80;9.30;;;;;;;15.79;63.17;98928.09;433700;1270;98477;-42
2022/07/06 21:18:04;;;;;;;14.50;7.10;;;;;;;15.76;63.39;98935.80;433612;1270;111208;-42
2022/07/06 21:28:11;;;;;;;11.80;7.90;;;;;;;15.70;63.71;98937.89;433389;1270;108667;-42
2022/07/06 21:38:19;;;;;;;13.90;8.00;;;;;;;15.57;63.90;98938.15;433495;1270;98019;-43
2022/07/06 21:48:24;;;;;;;11.20;7.50;;;;;;;15.32;64.20;98938.45;433534;1268;111024;-42
2022/07/06 21:58:32;;;;;;;8.50;5.80;;;;;;;15.07;64.20;98942.73;433544;1270;107268;-41
2022/07/06 22:08:39;;;;;;;9.40;5.70;;;;;;;14.75;64.55;98941.70;433611;1269;97605;-46
2022/07/06 22:18:48;;;;;;;6.20;4.90;;;;;;;14.75;64.92;98941.55;433545;1268;108535;-42
2022/07/06 22:28:54;;;;;;;;;;;;;;;14.65;65.20;98944.52;433610;1268;97951;-41
2022/07/06 22:39:02;;;;;;;7.00;5.40;;;;;;;14.55;65.71;98947.58;433494;1268;111741;-42
2022/07/06 22:49:09;;;;;;;8.40;5.30;;;;;;;14.54;65.96;98943.20;433463;1269;108997;-44
2022/07/06 22:59:16;;;;;;;6.70;4.90;;;;;;;14.61;66.24;98940.14;433568;1268;97929;-42
2022/07/06 23:09:23;;;;;;;10.30;4.80;;;;;;;14.69;66.51;98937.41;433526;1268;109671;-43
2022/07/06 23:19:32;;;;;;;16.20;6.40;;;;;;;14.67;66.54;98931.17;433557;1268;98480;-43
2022/07/06 23:39:45;;;;;;;9.90;5.00;;;;;;;14.26;66.72;98936.86;433488;1271;109226;-42
2022/07/06 23:49:52;;;;;;;9.00;5.60;;;;;;;14.11;67.08;98933.77;433537;1271;96612;-41
